KLAX

Los Angeles International Airport

Los Angeles, California, USA
METAR KLAX 240153Z 26013KT 10SM FEW015 17/12 A2996 RMK AO2 SLP143 T01670117
Observed Flight Rules
May-24 @ 01:53 UTC (29 minutes ago) Visual Flight Rules
Wind Visibility Clouds
260° at 13 knots 10 miles
  • Few at 1,500' AGL
Temperatures Readings
Current 17°C / 63°F
Dewpoint 12°C / 54°F
Humidity 73%
Altimeter 29.96" Hg
Pressure 1014.3 hPa
Elevation 46
METAR KLAX 240153Z 26013KT 10SM FEW015 17/12 A2996 RMK AO2 SLP143 T01670117
Observed Flight Rules
May-24 @ 01:53 UTC
(29 minutes ago)
VFR
Wind Visibility
260° at 13 knots 10 miles
Clouds
  • Few at 1,500' AGL
Temperature Dewpoint
17°C / 63°F 12°C / 54°F
Humidity Altimeter Pressure
73% 29.96" Hg 1014.3 hPa